Time;durP1;ratioP1;P1;durP2;ratioP2;P2;SDS_P1;SDS_P2;PMS_P1;PMS_P2;Temp;Humidity;BMP_temperature;BMP_pressure;BME280_temperature;BME280_humidity;BME280_pressure;Samples;Min_cycle;Max_cycle;Signal;HPM_P1;HPM_P2
2022/01/15 00:00:40;;;;;;;13.80;8.73;;;103.30;2227.20;;;;;;5035013;28;20116;-65
2022/01/15 00:03:08;;;;;;;16.92;9.57;;;103.20;2227.20;;;;;;5035248;28;20098;-68
2022/01/15 00:05:34;;;;;;;17.33;9.93;;;103.20;2227.20;;;;;;5034912;28;20029;-64
2022/01/15 00:08:02;;;;;;;17.65;10.73;;;103.20;2227.20;;;;;;5034467;28;20487;-65
2022/01/15 00:10:29;;;;;;;16.60;9.90;;;103.20;2227.20;;;;;;5034768;28;20031;-65
2022/01/15 00:12:57;;;;;;;13.95;8.95;;;103.20;2227.20;;;;;;5035301;28;20044;-65
2022/01/15 00:15:39;;;;;;;18.10;9.63;;;103.20;2227.20;;;;;;5035280;28;20455;-65
2022/01/15 00:18:11;;;;;;;16.83;9.63;;;103.20;2227.20;;;;;;5034784;28;20029;-65
2022/01/15 00:20:37;;;;;;;20.33;10.93;;;103.20;2227.20;;;;;;5035205;28;20079;-65
2022/01/15 00:23:04;;;;;;;18.80;10.93;;;103.10;2227.20;;;;;;5034453;28;20402;-65
2022/01/15 00:25:31;;;;;;;18.63;10.68;;;103.10;2227.20;;;;;;5034771;28;20028;-69
2022/01/15 00:27:59;;;;;;;18.67;11.68;;;103.10;2227.20;;;;;;5034685;28;20083;-65
2022/01/15 00:30:25;;;;;;;20.17;11.47;;;103.10;2227.20;;;;;;5034457;28;20556;-65
2022/01/15 00:32:52;;;;;;;17.27;9.70;;;103.10;2227.20;;;;;;5034196;28;20033;-77
2022/01/15 00:35:19;;;;;;;14.07;8.83;;;103.10;2227.20;;;;;;5034445;28;20025;-75
2022/01/15 00:37:46;;;;;;;18.40;10.00;;;103.00;2227.20;;;;;;5034313;28;20025;-65
2022/01/15 00:40:17;;;;;;;20.48;9.85;;;102.90;2227.20;;;;;;5017389;28;20462;-64
2022/01/15 00:42:44;;;;;;;13.90;9.40;;;102.90;2227.20;;;;;;5000138;28;20022;-64
2022/01/15 00:45:16;;;;;;;15.40;9.20;;;102.90;2227.20;;;;;;5034177;28;20032;-64
2022/01/15 00:47:42;;;;;;;15.95;9.15;;;102.80;2227.20;;;;;;5034204;28;20544;-74
2022/01/15 00:50:10;;;;;;;14.13;8.73;;;102.80;2227.20;;;;;;5034126;28;20102;-64
2022/01/15 00:52:36;;;;;;;16.20;8.83;;;102.80;2227.20;;;;;;5034000;28;20528;-65
2022/01/15 00:55:04;;;;;;;14.80;8.50;;;102.70;2227.20;;;;;;5016372;28;20029;-64
2022/01/15 00:57:30;;;;;;;17.93;11.10;;;102.70;2227.20;;;;;;5016257;28;20449;-64
2022/01/15 00:59:55;;;;;;;15.70;10.17;;;102.60;2227.20;;;;;;5034230;28;20029;-65
2022/01/15 01:02:21;;;;;;;18.30;10.43;;;102.60;2227.20;;;;;;5033889;28;20079;-73
2022/01/15 01:04:48;;;;;;;17.15;10.55;;;102.60;2227.20;;;;;;5034136;28;20497;-64
2022/01/15 01:07:13;;;;;;;18.30;10.40;;;102.50;2227.20;;;;;;5033482;28;20513;-64
2022/01/15 01:10:38;;;;;;;13.33;8.83;;;102.50;2227.20;;;;;;5033800;28;20025;-74
2022/01/15 01:23:22;;;;;;;16.87;10.80;;;102.50;2227.20;;;;;;5033456;28;20064;-74
2022/01/15 01:25:53;;;;;;;15.93;10.13;;;102.50;2227.20;;;;;;5033420;28;20461;-71
2022/01/15 01:28:44;;;;;;;16.97;9.67;;;102.50;2227.20;;;;;;5033540;28;20393;-64
2022/01/15 01:31:20;;;;;;;15.40;9.77;;;102.50;2227.20;;;;;;5032859;28;20079;-64
2022/01/15 01:33:50;;;;;;;15.10;9.77;;;102.40;2227.20;;;;;;5033508;28;20112;-65
2022/01/15 01:36:37;;;;;;;13.40;9.20;;;102.40;2227.20;;;;;;5033622;28;20032;-64
2022/01/15 01:39:09;;;;;;;17.27;10.57;;;102.40;2227.20;;;;;;5033678;28;20510;-65
2022/01/15 01:41:37;;;;;;;17.67;10.53;;;102.40;2227.20;;;;;;5033415;28;20028;-72
2022/01/15 01:44:04;;;;;;;16.50;10.43;;;102.40;2227.20;;;;;;5033276;28;20426;-65
2022/01/15 01:46:48;;;;;;;16.33;11.00;;;77.70;2227.20;;;;;;5033608;28;20037;-65
2022/01/15 01:49:15;;;;;;;18.00;11.00;;;77.70;2227.20;;;;;;5033548;28;20041;-74
2022/01/15 01:51:42;;;;;;;17.83;10.83;;;77.70;2227.20;;;;;;5033270;28;20109;-73
2022/01/15 01:54:12;;;;;;;17.33;10.87;;;77.70;2227.20;;;;;;5033277;28;20034;-73
2022/01/15 01:56:38;;;;;;;18.53;11.47;;;77.70;2227.20;;;;;;5015691;28;20430;-64
2022/01/15 01:59:06;;;;;;;27.47;14.83;;;77.70;2227.20;;;;;;5033138;28;20030;-64
2022/01/15 02:01:33;;;;;;;27.40;15.20;;;77.70;2227.20;;;;;;5033188;28;20467;-64
2022/01/15 02:03:58;;;;;;;25.13;15.70;;;77.70;2227.20;;;;;;5033248;28;20104;-73
2022/01/15 02:06:25;;;;;;;26.60;15.40;;;102.40;2227.20;;;;;;5033107;28;20064;-72
2022/01/15 02:08:51;;;;;;;25.30;14.67;;;102.40;2227.20;;;;;;5033042;28;20044;-72
2022/01/15 02:11:17;;;;;;;24.60;15.53;;;77.70;2227.20;;;;;;5033025;28;20022;-64
2022/01/15 02:13:45;;;;;;;24.90;15.33;;;102.40;2227.20;;;;;;5033078;28;20030;-73
2022/01/15 02:16:12;;;;;;;22.03;14.13;;;102.40;2227.20;;;;;;5033103;28;20021;-64
2022/01/15 02:18:38;;;;;;;21.97;13.50;;;77.70;2227.20;;;;;;5015339;28;20033;-64
2022/01/15 02:23:47;;;;;;;23.23;14.47;;;77.70;2227.20;;;;;;5032802;28;20045;-72
2022/01/15 02:26:16;;;;;;;23.20;14.00;;;77.70;2227.20;;;;;;5033553;28;20366;-65
2022/01/15 02:28:45;;;;;;;22.40;14.00;;;77.70;2227.20;;;;;;5032833;28;20037;-72
2022/01/15 02:31:15;;;;;;;21.30;14.27;;;77.70;2227.20;;;;;;5036119;28;20075;-64
2022/01/15 02:33:43;;;;;;;26.10;15.53;;;77.60;2227.20;;;;;;5036647;28;20132;-65
2022/01/15 02:36:21;;;;;;;23.87;15.40;;;77.60;2227.20;;;;;;5036692;28;20060;-73
2022/01/15 02:38:47;;;;;;;21.27;13.57;;;77.60;2227.20;;;;;;5036837;28;20028;-64
2022/01/15 02:41:15;;;;;;;18.57;12.40;;;77.60;2227.20;;;;;;5036291;28;20083;-64
2022/01/15 02:43:41;;;;;;;20.63;11.57;;;77.50;2227.20;;;;;;5037058;28;20028;-73
2022/01/15 02:49:03;;;;;;;19.80;12.20;;;77.50;2227.20;;;;;;4990017;28;20103;-64
2022/01/15 02:51:31;;;;;;;18.30;12.37;;;77.40;2227.20;;;;;;5036591;28;20072;-64
2022/01/15 02:53:58;;;;;;;19.77;12.30;;;77.40;2227.20;;;;;;5036508;28;20378;-65
2022/01/15 02:56:37;;;;;;;17.80;11.87;;;77.40;2227.20;;;;;;5036546;28;20028;-64
2022/01/15 02:59:04;;;;;;;19.33;12.23;;;77.40;2227.20;;;;;;5036516;28;20033;-64
2022/01/15 03:01:31;;;;;;;22.00;13.23;;;77.40;2227.20;;;;;;5036435;28;20022;-64
2022/01/15 03:03:57;;;;;;;19.20;12.07;;;77.40;2227.20;;;;;;5018391;28;20082;-65
2022/01/15 03:06:23;;;;;;;20.23;12.77;;;77.40;2227.20;;;;;;5036029;28;20029;-64
2022/01/15 03:08:50;;;;;;;20.23;12.67;;;77.40;2227.20;;;;;;5035873;28;20509;-72
2022/01/15 03:11:16;;;;;;;19.67;12.20;;;77.50;2227.20;;;;;;5036003;28;20021;-64
2022/01/15 03:13:43;;;;;;;20.07;13.10;;;77.50;2227.20;;;;;;5036012;28;20029;-73
2022/01/15 03:16:15;;;;;;;24.53;12.70;;;77.50;2227.20;;;;;;5018199;28;20183;-65
2022/01/15 03:18:41;;;;;;;21.90;13.03;;;77.50;2227.20;;;;;;5035891;28;20084;-73
2022/01/15 03:21:08;;;;;;;21.77;12.40;;;77.50;2227.20;;;;;;5035791;28;20021;-65
2022/01/15 03:23:34;;;;;;;20.03;12.77;;;77.50;2227.20;;;;;;5035713;28;20135;-65
2022/01/15 03:26:00;;;;;;;21.63;12.67;;;77.50;2227.20;;;;;;5017922;28;20360;-65
2022/01/15 03:28:26;;;;;;;23.57;13.57;;;77.50;2227.20;;;;;;5035575;28;20038;-66
2022/01/15 03:30:52;;;;;;;20.37;13.20;;;77.50;2227.20;;;;;;5035579;28;20075;-73
2022/01/15 03:33:18;;;;;;;20.40;12.80;;;77.50;2227.20;;;;;;5035527;28;20036;-64
2022/01/15 03:35:46;;;;;;;17.23;12.00;;;77.50;2227.20;;;;;;5035776;28;20021;-65
2022/01/15 03:38:12;;;;;;;24.23;13.43;;;77.50;2227.20;;;;;;5035466;28;20035;-65
2022/01/15 03:40:38;;;;;;;21.17;13.63;;;77.50;2227.20;;;;;;5035668;28;20108;-73
2022/01/15 03:43:05;;;;;;;21.57;12.80;;;77.50;2227.20;;;;;;5034598;28;20069;-64
2022/01/15 03:45:31;;;;;;;19.60;12.77;;;77.50;2227.20;;;;;;5035377;28;20071;-73
2022/01/15 03:47:57;;;;;;;22.70;13.10;;;77.50;2227.20;;;;;;5035494;28;20036;-65
2022/01/15 03:50:25;;;;;;;18.03;12.13;;;77.40;2227.20;;;;;;5035860;28;20022;-73
2022/01/15 03:52:52;;;;;;;19.13;12.00;;;77.40;2227.20;;;;;;5035223;28;20155;-73
2022/01/15 03:55:19;;;;;;;21.47;13.30;;;77.40;2227.20;;;;;;5035362;28;20082;-64
2022/01/15 03:57:45;;;;;;;23.30;14.37;;;77.40;2227.20;;;;;;5035070;28;20107;-66
2022/01/15 04:00:18;;;;;;;22.23;13.87;;;77.40;2227.20;;;;;;5035031;28;20025;-74
2022/01/15 04:02:44;;;;;;;20.85;13.50;;;77.40;2227.20;;;;;;5035561;28;20029;-64
2022/01/15 04:05:11;;;;;;;21.53;12.67;;;77.40;2227.20;;;;;;5035302;28;20041;-64
2022/01/15 04:07:37;;;;;;;21.47;12.40;;;77.40;2227.20;;;;;;5035034;28;20086;-73
2022/01/15 04:10:06;;;;;;;25.07;13.50;;;77.40;2227.20;;;;;;5034869;28;20427;-73
2022/01/15 04:12:32;;;;;;;20.93;14.43;;;77.40;2227.20;;;;;;5035107;28;20034;-65
2022/01/15 04:14:58;;;;;;;26.30;16.37;;;77.40;2227.20;;;;;;5034820;28;20033;-64
2022/01/15 04:17:25;;;;;;;21.20;13.40;;;77.40;2227.20;;;;;;5017021;28;20026;-72
2022/01/15 04:19:52;;;;;;;20.93;13.10;;;77.40;2227.20;;;;;;5034669;28;20021;-73
2022/01/15 04:22:17;;;;;;;21.80;13.00;;;77.40;2227.20;;;;;;5034430;28;20053;-65
2022/01/15 04:24:44;;;;;;;20.17;12.67;;;77.40;2227.20;;;;;;5034621;28;20033;-64
2022/01/15 04:27:10;;;;;;;22.13;13.10;;;77.40;2227.20;;;;;;5034401;28;20075;-73
2022/01/15 04:29:36;;;;;;;18.90;12.80;;;77.30;2227.20;;;;;;5034397;28;20112;-65
2022/01/15 04:32:02;;;;;;;21.37;12.90;;;77.30;2227.20;;;;;;5035042;28;20056;-73
2022/01/15 04:34:29;;;;;;;22.67;13.27;;;77.30;2227.20;;;;;;5034413;28;20057;-64
2022/01/15 04:37:03;;;;;;;25.37;14.47;;;77.30;2227.20;;;;;;5034345;28;20036;-65
2022/01/15 04:39:29;;;;;;;35.20;20.42;;;77.30;2227.20;;;;;;5034349;28;20030;-65
2022/01/15 04:41:55;;;;;;;36.83;20.87;;;77.30;2227.20;;;;;;5034235;28;20082;-66
2022/01/15 04:44:21;;;;;;;32.07;19.93;;;77.30;2227.20;;;;;;5034239;28;20537;-64
2022/01/15 04:46:47;;;;;;;25.03;15.23;;;77.30;2227.20;;;;;;5034209;28;20021;-65
2022/01/15 04:49:12;;;;;;;27.57;16.60;;;77.30;2227.20;;;;;;5034079;28;20037;-73
2022/01/15 04:51:39;;;;;;;23.53;14.97;;;77.30;2227.20;;;;;;5016317;28;20105;-73
2022/01/15 04:54:04;;;;;;;27.17;16.37;;;77.20;2227.20;;;;;;5033104;28;20033;-65
2022/01/15 04:56:30;;;;;;;34.07;17.03;;;77.20;2227.20;;;;;;5034184;28;20075;-64
2022/01/15 04:58:56;;;;;;;31.47;17.97;;;77.20;2227.20;;;;;;5034509;28;20053;-72
2022/01/15 05:01:22;;;;;;;42.83;25.00;;;77.20;2227.20;;;;;;5033873;28;20071;-73
2022/01/15 05:03:48;;;;;;;222.40;73.83;;;77.20;2227.20;;;;;;5033818;28;20033;-72
2022/01/15 05:06:14;;;;;;;390.27;118.67;;;77.20;2227.20;;;;;;5034146;28;20105;-73
2022/01/15 05:08:41;;;;;;;309.13;101.63;;;77.20;2227.20;;;;;;5034295;28;20044;-64
2022/01/15 05:11:15;;;;;;;468.77;176.87;;;77.10;2227.20;;;;;;5033798;28;20025;-65
2022/01/15 05:13:41;;;;;;;134.83;53.07;;;77.10;2227.20;;;;;;5034053;28;20013;-73
2022/01/15 05:16:08;;;;;;;96.97;42.80;;;77.10;2227.20;;;;;;5034006;28;20540;-64
2022/01/15 05:18:34;;;;;;;29.63;16.63;;;77.10;2227.20;;;;;;5033647;28;20032;-74
2022/01/15 05:21:00;;;;;;;26.83;15.60;;;77.10;2227.20;;;;;;5033739;28;20021;-65
2022/01/15 05:23:25;;;;;;;30.23;17.77;;;77.10;2227.20;;;;;;5033403;28;20079;-64
2022/01/15 05:25:51;;;;;;;32.93;20.73;;;77.10;2227.20;;;;;;5033571;28;20060;-73
2022/01/15 05:28:17;;;;;;;46.30;25.80;;;77.00;2227.20;;;;;;5033394;28;20038;-73
2022/01/15 05:30:43;;;;;;;50.57;27.20;;;77.00;2227.20;;;;;;5033553;28;20470;-73
2022/01/15 05:33:09;;;;;;;53.23;29.73;;;77.00;2227.20;;;;;;5015702;28;20172;-65
2022/01/15 05:35:35;;;;;;;50.90;26.80;;;77.00;2227.20;;;;;;5033428;28;20025;-64
2022/01/15 05:38:00;;;;;;;35.60;22.13;;;77.00;2227.20;;;;;;5033591;28;20104;-64
2022/01/15 05:40:27;;;;;;;37.43;22.17;;;77.10;2227.20;;;;;;5033322;28;20029;-64
2022/01/15 05:42:53;;;;;;;35.67;21.00;;;77.10;2227.20;;;;;;5033648;28;20075;-73
2022/01/15 05:45:24;;;;;;;44.40;23.23;;;77.10;2227.20;;;;;;5033385;28;20479;-64
2022/01/15 05:47:51;;;;;;;58.70;30.13;;;77.10;2227.20;;;;;;5033259;28;20028;-72
2022/01/15 05:50:17;;;;;;;52.97;27.93;;;77.10;2227.20;;;;;;5033311;28;20022;-73
2022/01/15 05:52:43;;;;;;;44.97;26.80;;;77.00;2227.20;;;;;;5033244;28;20029;-70
2022/01/15 05:55:09;;;;;;;61.73;31.30;;;77.00;2227.20;;;;;;5015512;28;20080;-65
2022/01/15 05:57:35;;;;;;;68.20;35.40;;;77.00;2227.20;;;;;;5033199;28;20109;-64
2022/01/15 06:00:01;;;;;;;83.27;41.87;;;76.90;2227.20;;;;;;5033166;28;20101;-64
2022/01/15 06:02:27;;;;;;;85.73;45.00;;;76.80;2227.20;;;;;;5033208;28;20026;-64
2022/01/15 06:04:53;;;;;;;107.30;50.27;;;52.10;2227.20;;;;;;5034309;28;20087;-73
2022/01/15 06:07:19;;;;;;;108.47;50.90;;;52.10;2227.20;;;;;;5037159;28;20135;-64
2022/01/15 06:09:45;;;;;;;96.20;46.13;;;52.00;2227.20;;;;;;5037117;28;20116;-64
2022/01/15 06:12:10;;;;;;;70.77;36.73;;;52.00;2227.20;;;;;;5037358;28;20471;-64
2022/01/15 06:14:36;;;;;;;75.67;41.60;;;51.90;2227.20;;;;;;5037250;28;20025;-64
2022/01/15 06:17:08;;;;;;;90.13;46.90;;;51.90;2227.20;;;;;;5036980;28;20079;-64
2022/01/15 06:19:36;;;;;;;76.03;36.57;;;52.00;2227.20;;;;;;5037576;28;20466;-64
2022/01/15 06:22:02;;;;;;;60.93;35.50;;;52.00;2227.20;;;;;;5037194;28;20076;-65
2022/01/15 06:24:28;;;;;;;53.57;32.10;;;52.00;2227.20;;;;;;5019193;28;20080;-64
2022/01/15 06:26:54;;;;;;;63.63;37.00;;;52.00;2227.20;;;;;;5018844;28;20445;-73
2022/01/15 06:29:20;;;;;;;54.67;34.27;;;52.00;2227.20;;;;;;5036653;28;20038;-73
2022/01/15 06:31:49;;;;;;;60.23;37.10;;;52.10;2227.20;;;;;;5036762;28;20017;-64
2022/01/15 06:34:15;;;;;;;61.00;34.27;;;52.10;2227.20;;;;;;5036929;28;20037;-69
2022/01/15 06:36:41;;;;;;;75.60;36.50;;;52.10;2227.20;;;;;;5036763;28;20087;-64
2022/01/15 06:39:06;;;;;;;65.13;34.07;;;76.80;2227.20;;;;;;5036628;28;20597;-73
2022/01/15 06:41:32;;;;;;;69.97;35.70;;;76.80;2227.20;;;;;;5036837;28;20022;-64
2022/01/15 06:43:58;;;;;;;65.10;36.10;;;76.80;2227.20;;;;;;5036765;28;20104;-73
2022/01/15 06:46:24;;;;;;;72.37;37.10;;;76.90;2227.20;;;;;;5036755;28;20033;-64
2022/01/15 06:48:50;;;;;;;68.93;36.47;;;76.90;2227.20;;;;;;5036675;28;20037;-73
2022/01/15 06:51:16;;;;;;;79.23;39.80;;;77.00;2227.20;;;;;;5036352;28;20104;-64
2022/01/15 06:53:42;;;;;;;73.00;38.67;;;77.00;2227.20;;;;;;5036371;28;20163;-73
2022/01/15 06:56:08;;;;;;;77.50;40.03;;;77.00;2227.20;;;;;;5036497;28;20026;-65
2022/01/15 06:58:34;;;;;;;68.47;37.07;;;77.10;2227.20;;;;;;5036493;28;20148;-64
2022/01/15 07:01:00;;;;;;;79.67;40.50;;;77.10;2227.20;;;;;;5036176;28;20513;-64
2022/01/15 07:03:27;;;;;;;80.63;38.27;;;77.20;2227.20;;;;;;5036051;28;20049;-64
2022/01/15 07:05:52;;;;;;;84.17;42.13;;;77.20;2227.20;;;;;;5036211;28;20021;-64
2022/01/15 07:08:18;;;;;;;78.17;42.93;;;77.30;2227.20;;;;;;5035943;28;20390;-66
2022/01/15 07:10:44;;;;;;;74.40;40.20;;;77.30;2227.20;;;;;;5036057;28;20021;-66
2022/01/15 07:13:10;;;;;;;78.00;41.43;;;77.30;2227.20;;;;;;5036122;28;20022;-73
2022/01/15 07:15:36;;;;;;;86.63;43.40;;;77.40;2227.20;;;;;;5035714;28;20425;-72
2022/01/15 07:18:03;;;;;;;89.47;45.07;;;77.40;2227.20;;;;;;5035036;28;20145;-73
2022/01/15 07:20:29;;;;;;;82.60;42.07;;;77.50;2227.20;;;;;;5035999;28;20033;-64
2022/01/15 07:22:55;;;;;;;110.67;43.40;;;77.50;2227.20;;;;;;5035771;28;20049;-64
2022/01/15 07:25:21;;;;;;;82.43;41.87;;;77.50;2227.20;;;;;;5018020;28;20100;-64
2022/01/15 07:27:47;;;;;;;73.93;40.20;;;77.50;2227.20;;;;;;5036144;28;20108;-64
2022/01/15 07:30:15;;;;;;;69.07;37.10;;;77.50;2227.20;;;;;;5035657;28;20028;-75
2022/01/15 07:32:42;;;;;;;74.40;40.03;;;77.60;2227.20;;;;;;5035658;28;20110;-68
2022/01/15 07:35:10;;;;;;;88.67;45.97;;;77.60;2227.20;;;;;;5035060;28;20026;-69
2022/01/15 07:37:37;;;;;;;83.60;45.23;;;77.70;2227.20;;;;;;5034891;28;20100;-67
2022/01/15 07:40:05;;;;;;;111.57;50.63;;;102.40;2227.20;;;;;;5034910;28;20026;-69
2022/01/15 07:42:37;;;;;;;74.93;41.00;;;102.40;2227.20;;;;;;5031994;28;20056;-68
2022/01/15 07:45:11;;;;;;;80.23;40.13;;;102.50;2227.20;;;;;;5034941;28;20021;-68
2022/01/15 07:47:37;;;;;;;92.00;54.80;;;102.50;2227.20;;;;;;5034662;28;20013;-69
2022/01/15 07:50:06;;;;;;;255.10;133.63;;;102.50;2227.20;;;;;;5034952;28;20030;-68
2022/01/15 07:52:32;;;;;;;215.93;85.07;;;102.50;2227.20;;;;;;5034558;28;20033;-67
2022/01/15 07:54:58;;;;;;;199.27;82.83;;;102.60;2227.20;;;;;;5034773;28;20029;-62
2022/01/15 07:57:24;;;;;;;259.33;102.87;;;102.60;2227.20;;;;;;5045379;28;20466;-67
2022/01/15 07:59:53;;;;;;;212.40;92.47;;;102.60;2227.20;;;;;;5040023;28;20108;-64
2022/01/15 08:02:19;;;;;;;281.03;106.70;;;102.60;2227.20;;;;;;5035073;28;20029;-73
2022/01/15 08:04:47;;;;;;;243.77;93.90;;;102.60;2227.20;;;;;;5034470;28;20508;-67
2022/01/15 08:07:13;;;;;;;182.13;75.07;;;102.70;2227.20;;;;;;5034797;28;20021;-67
2022/01/15 08:09:39;;;;;;;167.40;75.23;;;102.70;2227.20;;;;;;5034804;28;20041;-63
2022/01/15 08:12:05;;;;;;;74.87;38.83;;;102.70;2227.20;;;;;;5034858;28;20034;-64
2022/01/15 08:14:32;;;;;;;122.25;57.70;;;102.70;2227.20;;;;;;5034758;28;20025;-68
2022/01/15 08:16:57;;;;;;;152.63;73.10;;;102.70;2227.20;;;;;;5034189;28;20470;-64
2022/01/15 08:19:23;;;;;;;160.57;84.07;;;102.80;2227.20;;;;;;5034534;28;20032;-62
2022/01/15 08:21:49;;;;;;;165.00;78.30;;;102.90;2227.20;;;;;;5034400;28;20536;-62
2022/01/15 08:24:15;;;;;;;167.00;74.97;;;102.90;2227.20;;;;;;5034906;28;20073;-62
2022/01/15 08:26:41;;;;;;;204.93;87.87;;;103.00;2227.20;;;;;;5016626;28;20404;-68
2022/01/15 08:29:07;;;;;;;280.98;117.53;;;103.10;2227.20;;;;;;5033566;28;20083;-67
2022/01/15 08:31:32;;;;;;;221.40;104.13;;;103.10;2227.20;;;;;;5033875;28;20093;-64
2022/01/15 08:33:59;;;;;;;135.77;68.57;;;103.30;2227.20;;;;;;5033723;28;20148;-68
2022/01/15 08:36:24;;;;;;;106.53;56.93;;;128.00;2252.80;;;;;;5034236;28;20441;-65
2022/01/15 08:38:50;;;;;;;90.60;48.83;;;128.20;2252.80;;;;;;5033154;28;20033;-62
2022/01/15 08:41:16;;;;;;;76.13;45.13;;;128.30;2252.80;;;;;;5015670;28;20022;-62
2022/01/15 08:43:43;;;;;;;68.72;37.90;;;128.30;2252.80;;;;;;5034014;28;20025;-62
2022/01/15 08:46:09;;;;;;;72.17;37.80;;;128.30;2252.80;;;;;;5033634;28;20037;-62
2022/01/15 08:48:35;;;;;;;73.57;42.03;;;128.20;2252.80;;;;;;5032881;28;20517;-65
2022/01/15 08:51:01;;;;;;;95.07;53.63;;;128.30;2252.80;;;;;;5033887;28;20474;-67
2022/01/15 08:53:27;;;;;;;98.13;50.50;;;128.50;2252.80;;;;;;5034177;28;20064;-61
2022/01/15 08:55:54;;;;;;;85.90;45.17;;;128.90;2252.80;;;;;;5033129;28;20130;-65
2022/01/15 08:58:20;;;;;;;92.50;50.83;;;153.90;2252.80;;;;;;5033584;28;20030;-67
2022/01/15 09:00:47;;;;;;;88.03;46.55;;;154.00;2252.80;;;;;;5033538;28;20029;-65
2022/01/15 09:03:13;;;;;;;65.35;37.92;;;154.10;2252.80;;;;;;5033618;28;20038;-63
2022/01/15 09:05:40;;;;;;;78.45;42.17;;;154.10;2252.80;;;;;;5033035;28;20036;-67
2022/01/15 09:08:08;;;;;;;64.53;36.47;;;154.00;2252.80;;;;;;5033553;28;20588;-67
2022/01/15 09:10:41;;;;;;;55.03;31.75;;;154.00;2252.80;;;;;;5033894;28;20112;-67
2022/01/15 09:13:10;;;;;;;46.08;28.23;;;154.10;2252.80;;;;;;5033133;28;20071;-66
2022/01/15 09:15:37;;;;;;;41.67;28.83;;;154.10;2252.80;;;;;;5031024;28;20022;-67
2022/01/15 09:18:03;;;;;;;45.70;26.40;;;179.60;2252.80;;;;;;5033651;28;20033;-62
2022/01/15 09:20:30;;;;;;;49.53;30.63;;;179.60;2252.80;;;;;;5033545;28;20036;-66
2022/01/15 09:22:56;;;;;;;153.50;98.32;;;179.50;2252.80;;;;;;5033288;28;20045;-63
2022/01/15 09:25:22;;;;;;;62.22;29.40;;;179.50;2252.80;;;;;;5033244;28;20029;-63
2022/01/15 09:30:32;;;;;;;;;;;180.00;2252.80;;;;;;5031921;28;20059;-69
2022/01/15 09:32:58;;;;;;;43.72;23.08;;;179.90;2252.80;;;;;;5033717;28;20409;-64
2022/01/15 09:35:30;;;;;;;37.00;21.33;;;180.10;2252.80;;;;;;5033355;28;20037;-63
2022/01/15 09:37:57;;;;;;;41.55;24.55;;;205.10;2176.00;;;;;;5033354;28;20037;-64
2022/01/15 09:40:25;;;;;;;72.63;41.10;;;205.70;2124.80;;;;;;5032680;28;20462;-64
2022/01/15 09:42:52;;;;;;;37.60;23.52;;;231.00;1996.80;;;;;;5033306;28;20064;-64
2022/01/15 09:45:20;;;;;;;55.90;33.20;;;256.20;1894.40;;;;;;5032861;28;20064;-67
2022/01/15 09:47:53;;;;;;;55.13;31.88;;;256.60;1843.20;;;;;;5033444;28;20095;-64
2022/01/15 09:50:19;;;;;;;37.67;20.52;;;256.60;1843.20;;;;;;5033569;28;20026;-63
2022/01/15 09:52:45;;;;;;;35.45;21.83;;;307.80;1664.00;;;;;;5033287;28;20151;-61
2022/01/15 09:55:13;;;;;;;62.85;34.47;;;333.00;1612.80;;;;;;5032724;28;20033;-67
2022/01/15 09:57:40;;;;;;;52.70;33.42;;;307.90;1638.40;;;;;;5032738;28;20036;-65
2022/01/15 10:00:15;;;;;;;59.30;38.92;;;307.70;1638.40;;;;;;5033093;28;20029;-61
2022/01/15 10:02:43;;;;;;;115.28;82.45;;;332.80;1638.40;;;;;;5032976;28;20488;-67
2022/01/15 10:05:10;;;;;;;219.55;71.22;;;307.80;1612.80;;;;;;5030057;28;20027;-67
2022/01/15 10:07:36;;;;;;;162.88;68.75;;;307.40;1664.00;;;;;;5033032;28;20053;-63
2022/01/15 10:10:14;;;;;;;129.80;68.90;;;307.50;1689.60;;;;;;5032804;28;20109;-61
2022/01/15 10:12:42;;;;;;;137.90;71.55;;;333.30;1612.80;;;;;;5032718;28;20126;-69
2022/01/15 10:15:10;;;;;;;68.07;39.60;;;384.70;1433.60;;;;;;5033230;28;20029;-60
2022/01/15 10:17:38;;;;;;;57.58;34.05;;;384.80;1331.20;;;;;;5032324;28;20025;-61
2022/01/15 10:20:13;;;;;;;63.00;39.45;;;436.10;1254.40;;;;;;5032495;28;20029;-65
2022/01/15 10:22:50;;;;;;;51.22;30.83;;;487.20;1126.40;;;;;;5032824;28;20037;-67
2022/01/15 10:25:21;;;;;;;65.22;41.47;;;563.40;998.40;;;;;;5032982;28;20108;-63
2022/01/15 10:27:53;;;;;;;41.30;25.85;;;563.30;972.80;;;;;;5033236;28;20025;-63
2022/01/15 10:30:29;;;;;;;43.70;28.50;;;563.30;1024.00;;;;;;5015554;28;20132;-63
2022/01/15 10:33:03;;;;;;;51.22;30.73;;;563.30;1024.00;;;;;;5033129;28;20064;-64
2022/01/15 10:35:51;;;;;;;48.15;30.65;;;537.90;998.40;;;;;;5033509;28;20022;-63
2022/01/15 10:38:17;;;;;;;47.90;32.35;;;563.70;972.80;;;;;;5033119;28;20382;-63
2022/01/15 10:40:46;;;;;;;42.88;31.10;;;537.90;972.80;;;;;;5033150;28;20036;-63
2022/01/15 10:43:17;;;;;;;65.00;48.33;;;512.80;998.40;;;;;;5032824;28;20101;-63
2022/01/15 10:45:55;;;;;;;100.22;51.97;;;461.50;1126.40;;;;;;5033157;28;20052;-62
2022/01/15 10:48:26;;;;;;;59.33;37.50;;;461.60;1100.80;;;;;;5032688;28;20112;-62
2022/01/15 10:51:00;;;;;;;74.50;39.75;;;487.20;1049.60;;;;;;5033999;28;20483;-66
2022/01/15 10:53:36;;;;;;;50.55;35.40;;;486.90;1049.60;;;;;;5036916;28;20029;-62
2022/01/15 10:56:03;;;;;;;39.92;25.90;;;435.50;1203.20;;;;;;5036558;28;20128;-62
2022/01/15 10:58:29;;;;;;;30.83;21.38;;;460.80;1152.00;;;;;;5036239;28;20065;-62
2022/01/15 11:00:55;;;;;;;32.85;21.80;;;409.60;1254.40;;;;;;5036459;28;20029;-63
2022/01/15 11:03:22;;;;;;;24.85;16.55;;;409.80;1254.40;;;;;;5036234;28;20056;-67
2022/01/15 11:05:50;;;;;;;27.95;18.40;;;384.40;1280.00;;;;;;5036388;28;20028;-63
2022/01/15 11:08:26;;;;;;;33.70;20.92;;;461.30;1177.60;;;;;;5036210;28;20030;-62
2022/01/15 11:11:04;;;;;;;23.65;15.30;;;487.10;1049.60;;;;;;5036085;28;20425;-62
2022/01/15 11:13:32;;;;;;;21.92;14.02;;;;;;;;;;5036068;28;20616;-62
2022/01/15 11:16:10;;;;;;;19.23;14.18;;;358.60;1408.00;;;;;;5035865;28;20086;-62
2022/01/15 11:18:38;;;;;;;36.78;15.32;;;;;;;;;;5035388;28;20037;-62
2022/01/15 11:21:09;;;;;;;22.33;14.32;;;282.20;1587.20;;;;;;5034812;28;20041;-66
2022/01/15 11:23:37;;;;;;;25.90;15.20;;;281.60;1664.00;;;;;;5035068;28;20057;-62
2022/01/15 11:26:06;;;;;;;50.97;33.75;;;;;;;;;;5035492;28;20040;-63
2022/01/15 11:28:35;;;;;;;35.35;22.13;;;231.30;1740.80;;;;;;5034398;28;20077;-67
2022/01/15 11:31:25;;;;;;;37.30;18.48;;;231.10;1817.60;;;;;;5034145;28;20120;-68
2022/01/15 11:33:53;;;;;;;34.50;24.27;;;231.10;1817.60;;;;;;5035663;28;20104;-69
2022/01/15 11:36:43;;;;;;;35.90;20.63;;;231.00;1868.80;;;;;;5033725;28;20517;-65
2022/01/15 11:39:20;;;;;;;35.65;19.08;;;230.90;1868.80;;;;;;5032610;28;20037;-69
2022/01/15 11:41:53;;;;;;;30.40;19.92;;;230.80;1894.40;;;;;;5032264;28;20022;-65
2022/01/15 11:44:39;;;;;;;27.95;16.38;;;230.70;2252.80;;;;;;5033847;28;20032;-67
2022/01/15 11:47:12;;;;;;;28.08;16.70;;;230.70;1920.00;;;;;;5031778;28;20026;-68
2022/01/15 11:49:49;;;;;;;64.03;24.77;;;230.60;1920.00;;;;;;5033878;28;20033;-68
2022/01/15 11:52:17;;;;;;;27.00;15.90;;;230.70;1971.20;;;;;;5033988;28;20115;-68
2022/01/15 11:54:54;;;;;;;28.85;17.30;;;230.60;1971.20;;;;;;5033637;28;20037;-69
2022/01/15 11:57:22;;;;;;;34.97;17.42;;;230.60;1945.60;;;;;;5030929;28;20030;-69
2022/01/15 11:59:53;;;;;;;31.08;16.98;;;230.60;1945.60;;;;;;5033598;28;20086;-68
2022/01/15 12:02:37;;;;;;;26.17;15.75;;;230.50;1945.60;;;;;;5033117;28;20447;-69
2022/01/15 12:05:15;;;;;;;31.67;16.98;;;230.50;1971.20;;;;;;5031227;28;20029;-69
2022/01/15 12:07:45;;;;;;;35.08;18.38;;;230.40;1996.80;;;;;;5030734;28;20024;-68
2022/01/15 12:10:16;;;;;;;46.58;23.67;;;230.70;1945.60;;;;;;5033430;28;20021;-65
2022/01/15 12:12:50;;;;;;;30.27;17.15;;;281.80;1766.40;;;;;;5030977;28;20014;-69
2022/01/15 12:15:26;;;;;;;51.22;24.25;;;282.30;1638.40;;;;;;5033321;28;20028;-69
2022/01/15 12:17:54;;;;;;;29.25;18.60;;;281.80;1740.80;;;;;;5033336;28;20101;-70
2022/01/15 12:20:21;;;;;;;29.70;18.33;;;307.40;1638.40;;;;;;5033362;28;20542;-68
2022/01/15 12:22:59;;;;;;;27.38;15.73;;;281.90;1715.20;;;;;;5033025;28;20049;-65
2022/01/15 12:25:30;;;;;;;28.40;17.38;;;282.30;1664.00;;;;;;5031064;28;20541;-70
2022/01/15 12:27:57;;;;;;;29.50;16.75;;;256.70;1740.80;;;;;;5033203;28;20373;-66